Terminal Aerodrome Forecast
Issued by NWS

Current Version | Previous Version | Text Only | Print | Product List | Glossary On
Versions: 1 2 3 4 5 6 7 8 9 10 11 12 13 14
000
FTUS42 TJSJ 251700
TAFIST
TAF
TIST 251738Z 2518/2618 09011G18KT P6SM BKN030
     FM252300 08006KT P6SM FEW025
     FM261400 09012KT P6SM SCT025=

USA.gov is the U.S. government's official web portal to all federal, state and local government web resources and services.